Xekmatt — OR2473 — position and weather

sailwx.info

Track history (hours):
 
Tides and Currents Weather Stations Pressure Air Temp Water Temp Dewpoint Dewpoint Depression Visibility Wind Speed Wind Dir Waves Ship Positions

Xekmatt

Last reported at 2015-Mar-01 15:21 UTC. Time now 2015-Mar-06 00:06 UTC.
Position N 38°42' W 009°10'.

Length 14 m.

Type: Sailing vessel. MMSI: 205247310.

Date/timePositionNaut miles runAvg speedWind from/ knotsBaromVisibWave heightAir tempDewpointWater temp
2015-Mar-01 15:21N 38°42' W 009°10'2 2.6
2015-Mar-01 14:31N 38°41' W 009°13'1 1.2
2015-Mar-01 13:32N 38°41' W 009°14'0 0.3
2015-Mar-01 12:32N 38°41' W 009°14'2 1.7
2015-Mar-01 11:32N 38°42' W 009°12'  
2015-Feb-22 14:29N 38°42' W 009°10'2 2.6
2015-Feb-22 13:33N 38°42' W 009°07'0 0.1
2015-Feb-22 12:33N 38°41' W 009°07'0 0.2
2015-Feb-22 11:32N 38°42' W 009°07'2 2.1
2015-Feb-22 10:22N 38°42' W 009°10'1 0.0
2015-Feb-21 13:31N 38°42' W 009°09'2 1.8
2015-Feb-21 12:33N 38°42' W 009°07'0 0.4
2015-Feb-21 11:33N 38°41' W 009°07'2 2.5
2015-Feb-21 10:33N 38°42' W 009°10'0 0.0
2015-Feb-19 23:07N 38°42' W 009°10'0 0.0
2015-Feb-19 21:10N 38°42' W 009°10'  
Track history (hours):
 
Tides and Currents Weather Stations Pressure Air Temp Water Temp Dewpoint Dewpoint Depression Visibility Wind Speed Wind Dir Waves Ship Positions

Xekmatt

Last reported at 2015-Mar-01 15:21 UTC. Time now 2015-Mar-06 00:06 UTC.
Position N 38°42' W 009°10'.

Length 14 m.

Type: Sailing vessel. MMSI: 205247310.

Date/timePositionNaut miles runAvg speedWind from/ knotsBaromVisibWave heightAir tempDewpointWater temp
2015-Mar-01 15:21N 38°42' W 009°10'2 2.6
2015-Mar-01 14:31N 38°41' W 009°13'1 1.2
2015-Mar-01 13:32N 38°41' W 009°14'0 0.3
2015-Mar-01 12:32N 38°41' W 009°14'2 1.7
2015-Mar-01 11:32N 38°42' W 009°12'  
2015-Feb-22 14:29N 38°42' W 009°10'2 2.6
2015-Feb-22 13:33N 38°42' W 009°07'0 0.1
2015-Feb-22 12:33N 38°41' W 009°07'0 0.2
2015-Feb-22 11:32N 38°42' W 009°07'2 2.1
2015-Feb-22 10:22N 38°42' W 009°10'1 0.0
2015-Feb-21 13:31N 38°42' W 009°09'2 1.8
2015-Feb-21 12:33N 38°42' W 009°07'0 0.4
2015-Feb-21 11:33N 38°41' W 009°07'2 2.5
2015-Feb-21 10:33N 38°42' W 009°10'0 0.0
2015-Feb-19 23:07N 38°42' W 009°10'0 0.0
2015-Feb-19 21:10N 38°42' W 009°10'  

Dump ship's entire track history